Liberty Lake, WA (99019)

4:06 PM PDT on August 02, 2015 (GMT -0700)
Trailhead Golf Course | | Change Station
CLOSE
Current Station
Personal Weather Station
Location: Liberty Lake, WA
Elevation: 2073 ft
Nearby Weather Stations

Elev 2073 ft 47.67 °N, 117.10 °W | Updated 33 seconds ago

Partly Cloudy
Partly Cloudy
96.6 °F
Feels Like 92 °F
N
2.9
Wind Variable Wind from SW
Gusts 8.0 mph

Today
High -- | Low -- °F
--% Chance of Precip.
Yesterday
High -- | Low -- °F
Precip. -- in
5:26 AM 8:21 PM
Waning Gibbous, 91% visible
Pressure 29.78 in
Visibility 6.0 miles
Clouds Clear
Heat Index 92 °F
Dew Point 29 °F
Humidity 9%
Rainfall 0.00 in
Snow Depth Not available.
UV 6 out of 12
Pollen 6.50 out of 12
Air Quality Not available.
Flu Activity Not available.
METAR KSFF 022253Z VRB03KT 6SM FU CLR 37/M03 A2983 RMK AO2 SLP083 T03721033

More Conditions Fewer Conditions

Pressure 29.78 in
Visibility 6.0 miles
Clouds Clear
Heat Index 92 °F
Dew Point 29 °F
Humidity 9%
Rainfall 0.00 in
Snow Depth Not available.
UV 6 out of 12
Pollen 6.50 out of 12
Air Quality Not available.
Flu Activity Not available.
METAR KSFF 022253Z VRB03KT 6SM FU CLR 37/M03 A2983 RMK AO2 SLP083 T03721033

More Conditions Fewer Conditions

10-Day Weather Forecast

×

Almanac

Astronomy

Aug. 02, 2015 Rise Set
Actual Time
Civil Twilight
Nautical Twilight
Astronomical Twilight
Moon
Length of Visible Light
Length of Day
Tomorrow will be .
, % of the Moon is Illuminated

Today's Extremes

State Highs State Lows

Community

WunderPhotos

Upload Photos

1,843,409 photos uploaded!

WunderBlogs® & News

Nearby

Air Quality

  Air Quality AQ Index Pollutant
Not available.

Snow Depth

Station Depth Elevation

Earthquake Activity

City Distance Mag. Time & Date
Minimum magnitude displayed is 2.5.

Coastal Water Temperatures

Place Temperature

Stations

Nearby Weather Stations

Station Location Temp. Windchill Dew Point Humidity Wind Precip. Elev Updated Type